Terminal Aerodrome Forecast
Issued by NWS Lubbock, TX

Home | Current Version | Previous Version | Text Only | Print | Product List | Glossary On
Versions: 1 2 3 4 5 6 7 8 9 10 11 12 13 14 15
167
FTUS44 KLUB 261450 AAA
TAFLBB
TAF AMD
KLBB 261450Z 2615/2712 32011KT P6SM BKN250
     FM261900 26014G24KT P6SM BKN250
     FM270200 23011KT P6SM FEW250=

USA.gov is the U.S. government's official web portal to all federal, state and local government web resources and services.